Time;durP1;ratioP1;P1;durP2;ratioP2;P2;SDS_P1;SDS_P2;PMS_P1;PMS_P2;Temp;Humidity;BMP_temperature;BMP_pressure;BME280_temperature;BME280_humidity;BME280_pressure;Samples;Min_cycle;Max_cycle;Signal;HPM_P1;HPM_P2
2021/07/14 00:00:48;;;;;;;1.80;1.30;;;19.80;47.20;;;;;;10443995;28;20260;-70
2021/07/14 00:05:53;;;;;;;1.23;1.13;;;19.80;47.10;;;;;;10450624;28;20229;-70
2021/07/14 00:10:57;;;;;;;2.00;1.30;;;19.80;47.30;;;;;;10437500;28;20239;-70
2021/07/14 00:26:45;;;;;;;1.50;1.40;;;19.80;46.90;;;;;;10445722;28;20225;-70
2021/07/14 00:31:48;;;;;;;3.33;1.43;;;19.80;46.90;;;;;;10448728;28;20239;-70
2021/07/14 00:36:52;;;;;;;1.93;1.40;;;19.80;46.90;;;;;;10442776;28;20233;-70
2021/07/14 00:41:56;;;;;;;2.53;1.77;;;19.70;46.90;;;;;;10443557;28;20605;-70
2021/07/14 00:47:01;;;;;;;2.03;1.50;;;19.60;46.70;;;;;;10449897;28;20768;-70
2021/07/14 00:52:06;;;;;;;1.77;1.40;;;19.50;47.20;;;;;;10441738;28;20231;-70
2021/07/14 00:57:10;;;;;;;6.17;1.50;;;19.40;47.50;;;;;;10449484;28;20797;-70
2021/07/14 01:02:13;;;;;;;3.70;1.30;;;19.40;47.30;;;;;;10442312;28;20241;-70
2021/07/14 01:07:23;;;;;;;2.40;1.20;;;19.40;47.50;;;;;;10442604;28;20784;-70
2021/07/14 01:12:32;;;;;;;3.53;1.40;;;19.50;48.20;;;;;;10451639;28;20240;-70
2021/07/14 01:17:38;;;;;;;2.60;1.50;;;19.40;47.90;;;;;;10443398;28;20610;-70
2021/07/14 01:22:58;;;;;;;3.60;1.67;;;19.40;47.80;;;;;;10449953;28;20235;-70
2021/07/14 01:28:04;;;;;;;2.13;1.40;;;19.40;48.20;;;;;;10442368;28;20221;-70
2021/07/14 01:33:10;;;;;;;1.60;1.50;;;19.50;48.30;;;;;;10442829;28;20694;-70
2021/07/14 01:38:15;;;;;;;3.63;1.60;;;19.40;47.80;;;;;;10442208;28;20232;-70
2021/07/14 01:43:20;;;;;;;1.77;1.50;;;19.40;47.60;;;;;;10457290;28;20221;-70
2021/07/14 01:48:26;;;;;;;7.50;1.90;;;19.40;47.40;;;;;;10449440;28;20230;-70
2021/07/14 01:53:31;;;;;;;3.73;1.63;;;19.30;47.40;;;;;;10452479;28;20735;-70
2021/07/14 01:58:38;;;;;;;2.57;1.80;;;19.20;47.00;;;;;;10447899;28;20236;-70
2021/07/14 02:04:29;;;;;;;1.63;1.53;;;19.10;47.90;;;;;;10447670;28;20240;-70
2021/07/14 02:09:18;;;;;;;1.90;1.40;;;19.00;47.90;;;;;;10455064;28;20236;-70
2021/07/14 02:14:27;;;;;;;2.97;1.40;;;18.90;47.80;;;;;;10457154;28;20236;-70
2021/07/14 02:19:38;;;;;;;3.47;1.60;;;18.90;48.20;;;;;;10455856;28;20324;-70
2021/07/14 02:24:42;;;;;;;2.63;1.60;;;19.00;48.60;;;;;;10449098;28;20217;-70
2021/07/14 02:29:47;;;;;;;3.47;1.57;;;18.90;47.80;;;;;;10456785;28;20232;-70
2021/07/14 02:34:53;;;;;;;2.73;1.60;;;18.90;47.80;;;;;;10444212;28;20259;-70
2021/07/14 02:40:00;;;;;;;3.17;1.70;;;18.90;47.90;;;;;;10447719;28;20861;-70
2021/07/14 02:45:07;;;;;;;4.33;1.73;;;18.90;48.10;;;;;;10455567;28;20236;-70
2021/07/14 02:50:15;;;;;;;4.53;1.50;;;18.90;48.20;;;;;;10451551;28;20593;-70
2021/07/14 02:55:21;;;;;;;3.27;1.57;;;19.00;47.90;;;;;;10451874;28;20232;-69
2021/07/14 03:00:27;;;;;;;4.17;1.67;;;19.00;47.90;;;;;;10448328;28;20778;-70
2021/07/14 03:05:32;;;;;;;4.73;1.70;;;19.00;47.90;;;;;;10448730;28;20228;-70
2021/07/14 03:10:35;;;;;;;4.70;1.60;;;19.00;47.90;;;;;;10449827;28;20216;-70
2021/07/14 03:15:41;;;;;;;2.80;1.87;;;19.00;47.90;;;;;;10449581;28;20232;-70
2021/07/14 03:20:51;;;;;;;2.20;1.70;;;18.90;47.80;;;;;;10451281;28;20236;-70
2021/07/14 03:25:58;;;;;;;2.57;1.70;;;18.90;47.80;;;;;;10447379;28;20229;-70
2021/07/14 03:31:03;;;;;;;4.83;1.50;;;18.90;47.80;;;;;;10442602;28;20233;-70
2021/07/14 03:36:08;;;;;;;4.93;1.70;;;18.90;48.00;;;;;;10452735;28;20287;-70
2021/07/14 03:41:11;;;;;;;3.50;1.70;;;18.80;47.80;;;;;;10448980;28;20232;-70
2021/07/14 03:46:17;;;;;;;4.03;1.77;;;18.70;47.60;;;;;;10438440;28;20235;-70
2021/07/14 03:51:23;;;;;;;1.40;1.30;;;18.70;48.30;;;;;;10455186;28;20768;-70
2021/07/14 03:56:27;;;;;;;3.73;1.50;;;18.70;48.50;;;;;;10443920;28;20228;-70
2021/07/14 04:01:32;;;;;;;2.57;1.80;;;18.70;48.10;;;;;;10443953;28;20232;-70
2021/07/14 04:06:36;;;;;;;6.40;1.60;;;18.80;48.10;;;;;;10444830;28;20719;-70
2021/07/14 04:11:40;;;;;;;3.13;1.60;;;18.80;47.80;;;;;;10446339;28;20228;-70
2021/07/14 04:16:45;;;;;;;4.20;1.50;;;18.70;48.10;;;;;;10441886;28;20225;-70
2021/07/14 04:21:49;;;;;;;3.40;1.60;;;18.80;48.50;;;;;;10447922;28;20229;-70
2021/07/14 04:26:52;;;;;;;3.10;1.80;;;18.80;48.20;;;;;;10445302;28;20633;-70
2021/07/14 04:31:57;;;;;;;3.83;1.83;;;18.80;48.20;;;;;;10446388;28;20340;-70
2021/07/14 04:37:01;;;;;;;1.83;1.73;;;18.90;48.50;;;;;;10439882;28;21233;-70
2021/07/14 04:42:04;;;;;;;2.73;1.60;;;18.80;48.10;;;;;;10443249;28;20231;-70
2021/07/14 04:47:09;;;;;;;2.87;1.87;;;18.80;48.10;;;;;;10441476;28;20221;-70
2021/07/14 04:52:12;;;;;;;1.50;1.40;;;18.90;48.70;;;;;;10438153;28;20232;-70
2021/07/14 04:57:16;;;;;;;1.93;1.70;;;18.80;48.30;;;;;;10433459;28;20713;-70
2021/07/14 05:02:20;;;;;;;1.87;1.77;;;18.90;48.50;;;;;;10440927;28;20229;-70
2021/07/14 05:07:24;;;;;;;2.20;1.60;;;19.00;48.70;;;;;;10436379;28;20229;-70
2021/07/14 05:12:27;;;;;;;4.83;1.83;;;19.00;47.90;;;;;;10436379;28;20228;-70
2021/07/14 05:17:32;;;;;;;2.50;1.87;;;19.00;47.90;;;;;;10447391;28;20570;-70
2021/07/14 05:22:36;;;;;;;6.80;2.10;;;19.00;48.10;;;;;;10446357;28;20229;-70
2021/07/14 05:27:39;;;;;;;3.73;1.97;;;18.90;48.10;;;;;;10452765;28;20227;-70
2021/07/14 05:32:44;;;;;;;2.30;2.10;;;18.90;48.30;;;;;;10453830;28;20228;-70
2021/07/14 05:37:47;;;;;;;4.03;2.30;;;18.90;48.40;;;;;;10449942;28;20225;-70
2021/07/14 05:42:50;;;;;;;2.03;1.93;;;18.90;48.10;;;;;;10455135;28;20891;-70
2021/07/14 05:47:55;;;;;;;4.23;2.13;;;18.90;47.90;;;;;;10451038;28;20225;-70
2021/07/14 05:52:58;;;;;;;2.13;1.93;;;19.00;48.20;;;;;;10453420;28;20656;-70
2021/07/14 05:58:01;;;;;;;2.57;2.37;;;19.00;48.30;;;;;;10447485;28;20601;-70
2021/07/14 06:03:06;;;;;;;3.47;2.20;;;19.00;47.90;;;;;;10447639;28;20221;-70
2021/07/14 06:08:10;;;;;;;3.43;2.30;;;19.10;47.90;;;;;;10444789;28;20217;-70
2021/07/14 06:13:13;;;;;;;3.03;2.73;;;19.10;48.10;;;;;;10448127;28;20228;-71
2021/07/14 06:18:18;;;;;;;2.93;2.47;;;19.20;48.40;;;;;;10446758;28;20224;-71
2021/07/14 06:23:21;;;;;;;4.27;2.90;;;19.20;48.30;;;;;;10447271;28;20424;-71
2021/07/14 06:28:24;;;;;;;3.10;2.47;;;19.30;48.10;;;;;;10448319;28;20225;-71
2021/07/14 06:33:35;;;;;;;3.20;2.80;;;19.40;48.20;;;;;;10452514;28;20253;-71
2021/07/14 06:38:38;;;;;;;3.00;2.37;;;19.40;48.20;;;;;;10448287;28;20305;-71
2021/07/14 06:43:47;;;;;;;3.37;3.07;;;19.40;48.20;;;;;;10451718;28;20221;-71
2021/07/14 06:48:52;;;;;;;3.40;3.10;;;19.50;48.30;;;;;;10454339;28;20239;-71
2021/07/14 06:53:55;;;;;;;3.43;2.80;;;19.60;48.40;;;;;;10448405;28;20743;-71
2021/07/14 06:58:59;;;;;;;4.60;2.83;;;19.60;48.10;;;;;;10449269;28;20243;-71
2021/07/14 07:04:03;;;;;;;5.17;3.27;;;19.60;48.40;;;;;;10451645;28;20228;-71
2021/07/14 07:09:06;;;;;;;4.77;4.37;;;19.70;48.50;;;;;;10448575;28;20233;-71
2021/07/14 07:14:10;;;;;;;6.07;5.37;;;19.80;48.60;;;;;;10456115;28;20237;-70
2021/07/14 07:19:14;;;;;;;6.50;4.37;;;19.80;48.10;;;;;;10453455;28;20237;-71
2021/07/14 07:24:17;;;;;;;6.40;5.77;;;19.80;48.20;;;;;;10449719;28;20247;-70
2021/07/14 07:29:21;;;;;;;6.07;5.50;;;19.80;48.30;;;;;;10451322;28;20236;-71
2021/07/14 07:34:25;;;;;;;11.07;5.97;;;19.90;48.00;;;;;;10442937;28;20236;-71
2021/07/14 07:39:28;;;;;;;6.50;5.73;;;19.90;48.20;;;;;;10449156;28;20250;-70
2021/07/14 07:44:31;;;;;;;7.17;5.70;;;19.90;48.00;;;;;;10451184;28;20217;-71
2021/07/14 07:49:38;;;;;;;6.93;6.37;;;19.90;48.50;;;;;;10446983;28;20225;-71
2021/07/14 07:55:01;;;;;;;7.67;6.97;;;19.90;48.70;;;;;;10447542;28;20228;-70
2021/07/14 08:00:07;;;;;;;6.23;5.63;;;19.90;48.70;;;;;;10450179;28;20233;-71
2021/07/14 08:05:13;;;;;;;7.97;6.80;;;20.00;48.30;;;;;;10446796;28;20256;-71
2021/07/14 08:10:16;;;;;;;6.77;6.17;;;20.10;47.60;;;;;;10449719;28;20244;-71
2021/07/14 08:15:19;;;;;;;6.97;6.27;;;20.10;47.80;;;;;;10452448;28;20225;-71
2021/07/14 08:20:24;;;;;;;7.80;7.00;;;20.20;48.40;;;;;;10448303;28;20239;-71
2021/07/14 08:25:27;;;;;;;9.97;9.00;;;20.20;47.80;;;;;;10446434;28;20231;-71
2021/07/14 08:30:30;;;;;;;7.20;6.67;;;20.30;47.90;;;;;;10449411;28;20224;-71
2021/07/14 08:35:35;;;;;;;8.60;7.80;;;20.40;48.00;;;;;;10446468;28;20233;-71
2021/07/14 08:40:39;;;;;;;7.77;7.07;;;20.50;47.90;;;;;;10447529;28;20229;-71
2021/07/14 08:45:45;;;;;;;8.17;7.47;;;20.50;47.60;;;;;;10440788;28;20222;-71
2021/07/14 08:50:57;;;;;;;7.97;7.27;;;20.60;47.60;;;;;;10458739;28;20225;-71
2021/07/14 08:56:01;;;;;;;7.87;7.17;;;20.70;47.00;;;;;;10450051;28;20232;-70
2021/07/14 09:01:04;;;;;;;7.43;6.83;;;20.70;47.30;;;;;;10435398;28;20845;-71
2021/07/14 09:06:09;;;;;;;8.20;7.50;;;20.80;47.50;;;;;;10433002;28;20235;-71
2021/07/14 09:11:12;;;;;;;7.53;7.03;;;20.90;47.40;;;;;;10437823;28;20251;-70
2021/07/14 09:16:34;;;;;;;7.10;6.60;;;21.00;47.20;;;;;;10436676;28;20229;-70
2021/07/14 09:21:45;;;;;;;8.07;7.37;;;21.10;46.90;;;;;;10441785;28;20255;-71
2021/07/14 09:26:48;;;;;;;7.70;7.10;;;21.30;46.60;;;;;;10434880;28;20576;-70
2021/07/14 09:31:53;;;;;;;6.23;5.63;;;21.40;46.70;;;;;;10432967;28;20232;-70
2021/07/14 09:37:01;;;;;;;8.27;6.93;;;21.30;46.40;;;;;;10436709;28;20993;-70
2021/07/14 09:42:07;;;;;;;7.57;6.70;;;21.40;46.30;;;;;;10433452;28;20766;-71
2021/07/14 09:47:16;;;;;;;7.17;6.63;;;21.60;46.70;;;;;;10441871;28;20220;-71
2021/07/14 09:52:22;;;;;;;6.83;6.33;;;21.70;46.70;;;;;;10435941;28;20353;-71
2021/07/14 09:57:26;;;;;;;6.30;5.87;;;21.80;46.70;;;;;;10428790;28;20339;-71
2021/07/14 10:02:29;;;;;;;5.03;4.73;;;22.00;46.50;;;;;;10444146;28;20222;-71
2021/07/14 10:07:33;;;;;;;5.63;5.23;;;22.10;46.20;;;;;;10444650;28;20231;-71
2021/07/14 10:12:39;;;;;;;5.63;5.07;;;22.10;45.60;;;;;;10449880;28;20307;-71
2021/07/14 10:17:44;;;;;;;6.17;5.67;;;22.10;45.60;;;;;;10447574;28;20233;-71
2021/07/14 10:22:49;;;;;;;5.20;4.87;;;22.10;45.30;;;;;;10452887;28;20233;-71
2021/07/14 10:27:54;;;;;;;5.10;4.70;;;22.10;45.20;;;;;;10446579;28;20234;-70
2021/07/14 10:32:58;;;;;;;3.87;3.57;;;22.00;45.40;;;;;;10450933;28;20229;-70
2021/07/14 10:38:05;;;;;;;3.80;3.53;;;22.00;45.50;;;;;;10447193;28;20235;-71
2021/07/14 10:43:09;;;;;;;3.30;2.97;;;22.10;45.00;;;;;;10453682;28;20702;-70
2021/07/14 10:48:14;;;;;;;2.97;2.67;;;22.10;45.20;;;;;;10456972;28;20229;-71
2021/07/14 10:53:19;;;;;;;2.10;2.00;;;22.10;45.30;;;;;;10445721;28;20236;-71
2021/07/14 10:58:24;;;;;;;2.83;2.20;;;22.10;44.50;;;;;;10438542;28;20242;-71
2021/07/14 11:03:46;;;;;;;1.80;1.70;;;22.00;44.40;;;;;;10443823;28;20237;-71
2021/07/14 11:08:51;;;;;;;1.80;1.70;;;22.10;44.30;;;;;;10436194;28;20248;-71
2021/07/14 11:14:05;;;;;;;2.00;1.90;;;22.10;44.50;;;;;;10441584;28;20228;-71
2021/07/14 11:19:12;;;;;;;2.60;2.40;;;22.20;44.50;;;;;;10441325;28;20221;-71
2021/07/14 11:24:51;;;;;;;1.63;1.53;;;22.10;44.30;;;;;;10441110;28;20217;-71
2021/07/14 11:29:57;;;;;;;2.10;1.97;;;22.00;43.80;;;;;;10448285;28;20228;-71
2021/07/14 11:35:05;;;;;;;1.80;1.70;;;22.00;44.30;;;;;;10448590;28;20320;-71
2021/07/14 11:40:34;;;;;;;1.97;1.87;;;22.00;44.40;;;;;;10449844;28;20232;-70
2021/07/14 11:45:41;;;;;;;1.77;1.67;;;21.90;44.20;;;;;;10436872;28;20235;-71
2021/07/14 11:50:54;;;;;;;2.33;1.90;;;21.90;44.60;;;;;;10450572;28;20705;-70
2021/07/14 11:56:01;;;;;;;2.03;1.87;;;21.90;44.60;;;;;;10446125;28;20236;-70
2021/07/14 12:01:09;;;;;;;2.43;2.17;;;22.00;44.80;;;;;;10447843;28;20232;-71
2021/07/14 12:06:36;;;;;;;2.30;2.10;;;22.00;44.40;;;;;;10444597;28;20653;-71
2021/07/14 12:11:40;;;;;;;3.20;1.90;;;22.10;44.70;;;;;;10451732;28;20602;-71
2021/07/14 12:16:48;;;;;;;1.83;1.73;;;22.20;45.20;;;;;;10448841;28;20249;-71
2021/07/14 12:21:52;;;;;;;3.23;2.00;;;22.40;44.80;;;;;;10453711;28;20274;-70
2021/07/14 12:27:05;;;;;;;1.80;1.70;;;22.60;44.50;;;;;;10446855;28;20251;-71
2021/07/14 12:32:09;;;;;;;1.70;1.60;;;22.80;44.10;;;;;;10444546;28;20606;-71
2021/07/14 12:37:13;;;;;;;2.53;1.53;;;22.90;43.00;;;;;;10446634;28;20232;-71
2021/07/14 12:42:21;;;;;;;1.40;1.40;;;23.00;43.60;;;;;;10446114;28;20226;-70
2021/07/14 12:47:26;;;;;;;1.80;1.70;;;23.10;42.70;;;;;;10453490;28;20282;-71
2021/07/14 12:52:29;;;;;;;3.77;2.00;;;23.30;43.70;;;;;;10448327;28;20229;-71
2021/07/14 12:57:32;;;;;;;3.20;2.20;;;23.40;43.60;;;;;;10441317;28;20595;-71
2021/07/14 13:02:41;;;;;;;2.20;2.00;;;23.40;43.00;;;;;;10444433;28;20225;-70
2021/07/14 13:07:46;;;;;;;3.53;1.87;;;23.30;42.60;;;;;;10442274;28;20221;-71
2021/07/14 13:12:53;;;;;;;2.00;1.90;;;23.20;42.60;;;;;;10454720;28;20239;-71
2021/07/14 13:18:06;;;;;;;1.80;1.70;;;23.10;41.90;;;;;;10452894;28;20256;-71
2021/07/14 13:23:11;;;;;;;2.17;2.00;;;23.00;42.20;;;;;;10444050;28;20889;-71
2021/07/14 13:28:20;;;;;;;2.03;1.90;;;23.00;42.80;;;;;;10457638;28;20715;-71
2021/07/14 13:33:29;;;;;;;2.00;1.90;;;22.90;42.50;;;;;;10432045;28;20231;-71
2021/07/14 13:38:35;;;;;;;2.40;2.10;;;22.90;42.90;;;;;;10445491;28;20736;-71
2021/07/14 13:43:42;;;;;;;2.80;1.90;;;23.00;42.70;;;;;;10457070;28;20217;-71
2021/07/14 13:48:52;;;;;;;1.77;1.67;;;23.00;41.70;;;;;;10441929;28;20236;-75
2021/07/14 13:53:55;;;;;;;1.70;1.60;;;22.90;41.20;;;;;;10443980;28;20225;-76
2021/07/14 13:59:20;;;;;;;2.57;2.37;;;22.90;42.10;;;;;;10447434;28;20228;-75
2021/07/14 14:04:25;;;;;;;2.13;1.90;;;22.90;41.50;;;;;;10444054;28;20217;-76
2021/07/14 14:09:28;;;;;;;1.93;1.80;;;22.80;41.80;;;;;;10442076;28;20614;-76
2021/07/14 14:14:31;;;;;;;2.03;1.90;;;22.80;42.50;;;;;;10445631;28;20236;-76
2021/07/14 14:19:36;;;;;;;2.77;2.00;;;22.80;42.50;;;;;;10439665;28;20236;-75
2021/07/14 14:24:39;;;;;;;3.47;2.17;;;22.80;41.60;;;;;;10448736;28;20229;-74
2021/07/14 14:29:42;;;;;;;2.23;2.03;;;22.80;42.10;;;;;;10445043;28;20734;-76
2021/07/14 14:34:47;;;;;;;2.33;1.93;;;22.80;42.00;;;;;;10448624;28;20232;-78
2021/07/14 14:39:53;;;;;;;2.43;2.23;;;22.80;42.30;;;;;;10442393;28;20240;-75
2021/07/14 14:44:56;;;;;;;2.07;1.97;;;22.80;42.50;;;;;;10440261;28;20248;-75
2021/07/14 14:50:01;;;;;;;2.00;1.90;;;22.80;42.30;;;;;;10431750;28;20329;-75
2021/07/14 14:55:04;;;;;;;1.80;1.70;;;22.80;41.80;;;;;;10450069;28;20221;-75
2021/07/14 15:00:09;;;;;;;2.40;1.80;;;22.90;42.20;;;;;;10452147;28;20232;-75
2021/07/14 15:05:14;;;;;;;2.07;1.97;;;23.10;42.50;;;;;;10443561;28;20858;-75
2021/07/14 15:10:17;;;;;;;2.57;1.80;;;23.30;41.90;;;;;;10442882;28;20231;-76
2021/07/14 15:15:20;;;;;;;1.90;1.80;;;23.50;42.30;;;;;;10438555;28;20233;-75
2021/07/14 15:20:26;;;;;;;2.60;2.20;;;23.60;41.80;;;;;;10438186;28;20229;-76
2021/07/14 15:28:38;;;;;;;2.50;2.30;;;23.80;41.10;;;;;;10447169;28;20680;-75
2021/07/14 15:31:01;;;;;;;2.17;2.07;;;23.90;40.10;;;;;;10445708;28;20260;-76
2021/07/14 15:36:07;;;;;;;3.97;2.10;;;24.00;40.00;;;;;;10452963;28;20251;-76
2021/07/14 15:41:11;;;;;;;3.83;2.30;;;23.90;39.90;;;;;;10445289;28;20236;-76
2021/07/14 15:46:14;;;;;;;3.00;2.40;;;24.00;40.00;;;;;;10450429;28;20220;-71
2021/07/14 15:51:20;;;;;;;2.20;2.00;;;24.00;40.00;;;;;;10447777;28;20335;-71
2021/07/14 15:56:27;;;;;;;2.30;2.03;;;24.00;40.00;;;;;;10450822;28;20322;-70
2021/07/14 16:01:31;;;;;;;2.90;2.27;;;24.00;40.00;;;;;;10432218;28;20241;-71
2021/07/14 16:06:35;;;;;;;2.43;2.23;;;24.00;40.00;;;;;;10439180;28;20229;-71
2021/07/14 16:11:38;;;;;;;2.23;2.03;;;24.00;40.00;;;;;;10446048;28;20239;-71
2021/07/14 16:16:42;;;;;;;2.20;2.10;;;23.90;40.00;;;;;;10444777;28;20225;-71
2021/07/14 16:21:46;;;;;;;3.63;2.30;;;23.90;40.50;;;;;;10445540;28;20234;-70
2021/07/14 16:26:50;;;;;;;2.30;2.10;;;23.90;40.00;;;;;;10446245;28;20263;-71
2021/07/14 16:31:53;;;;;;;2.37;2.10;;;24.00;40.00;;;;;;10448108;28;20228;-71
2021/07/14 16:36:59;;;;;;;2.30;2.10;;;24.10;40.10;;;;;;10436813;28;20255;-71
2021/07/14 16:42:02;;;;;;;3.77;2.07;;;24.20;39.10;;;;;;10446287;28;20225;-71
2021/07/14 16:47:05;;;;;;;2.10;2.00;;;24.20;40.20;;;;;;10440702;28;20236;-68
2021/07/14 16:52:10;;;;;;;3.10;1.80;;;24.30;39.40;;;;;;10442374;28;20235;-67
2021/07/14 16:57:13;;;;;;;1.93;1.83;;;24.30;38.00;;;;;;10441536;28;20232;-68
2021/07/14 17:02:16;;;;;;;1.90;1.80;;;24.30;38.60;;;;;;10441960;28;20229;-67
2021/07/14 17:07:21;;;;;;;1.73;1.63;;;24.20;38.60;;;;;;10447251;28;20223;-68
2021/07/14 17:12:24;;;;;;;2.00;1.60;;;24.30;38.20;;;;;;10448352;28;20237;-68
2021/07/14 17:17:28;;;;;;;2.40;1.73;;;24.30;38.40;;;;;;10461042;28;20606;-67
2021/07/14 17:22:32;;;;;;;1.90;1.80;;;24.30;38.40;;;;;;10454169;28;20235;-68
2021/07/14 17:27:36;;;;;;;1.27;1.27;;;24.20;37.30;;;;;;10452925;28;20212;-68
2021/07/14 17:32:40;;;;;;;1.80;1.70;;;24.10;37.50;;;;;;10449161;28;20253;-71
2021/07/14 17:37:45;;;;;;;1.43;1.33;;;24.10;37.50;;;;;;10444703;28;20231;-68
2021/07/14 17:42:48;;;;;;;1.90;1.80;;;24.10;37.40;;;;;;10433003;28;20235;-67
2021/07/14 17:47:51;;;;;;;2.00;1.90;;;24.20;37.90;;;;;;10437120;28;20259;-68
2021/07/14 17:52:56;;;;;;;1.80;1.70;;;24.20;37.60;;;;;;10436866;28;20252;-68
2021/07/14 17:57:59;;;;;;;2.00;1.90;;;24.20;36.80;;;;;;10447650;28;20271;-67
2021/07/14 18:03:02;;;;;;;1.80;1.70;;;24.30;37.40;;;;;;10452989;28;20225;-68
2021/07/14 18:08:08;;;;;;;1.80;1.70;;;24.20;37.20;;;;;;10450129;28;20651;-68
2021/07/14 18:13:11;;;;;;;1.87;1.77;;;24.10;36.60;;;;;;10450203;28;20232;-68
2021/07/14 18:18:15;;;;;;;1.83;1.73;;;24.10;37.10;;;;;;10455804;28;20229;-67
2021/07/14 18:23:19;;;;;;;1.80;1.70;;;23.90;37.00;;;;;;10456380;28;20243;-67
2021/07/14 18:28:22;;;;;;;1.80;1.70;;;23.80;36.80;;;;;;10451951;28;20716;-68
2021/07/14 18:33:25;;;;;;;1.73;1.63;;;23.70;37.20;;;;;;10453995;28;20231;-69
2021/07/14 18:38:30;;;;;;;1.70;1.60;;;23.60;37.30;;;;;;10438249;28;20318;-68
2021/07/14 18:43:36;;;;;;;1.80;1.70;;;23.60;37.10;;;;;;10446665;28;20333;-69
2021/07/14 18:48:39;;;;;;;1.90;1.80;;;23.50;37.40;;;;;;10445458;28;20235;-68
2021/07/14 18:53:44;;;;;;;3.17;1.80;;;23.30;37.40;;;;;;10444383;28;20217;-68
2021/07/14 18:58:47;;;;;;;2.70;2.10;;;23.10;37.40;;;;;;10442796;28;20601;-68
2021/07/14 19:03:50;;;;;;;2.77;2.10;;;22.90;37.70;;;;;;10434920;28;20229;-68
2021/07/14 19:08:55;;;;;;;1.80;1.70;;;22.80;38.00;;;;;;10440878;28;20221;-68
2021/07/14 19:13:58;;;;;;;2.10;2.00;;;22.70;38.30;;;;;;10438673;28;20224;-68
2021/07/14 19:19:02;;;;;;;1.90;1.70;;;22.50;38.60;;;;;;10438636;28;20221;-72
2021/07/14 19:24:06;;;;;;;1.90;1.77;;;22.40;38.60;;;;;;10441254;28;20224;-69
2021/07/14 19:29:12;;;;;;;1.90;1.80;;;22.20;38.40;;;;;;10437612;28;20233;-68
2021/07/14 19:34:15;;;;;;;2.20;2.00;;;22.20;38.40;;;;;;10437163;28;20771;-68
2021/07/14 19:39:20;;;;;;;2.00;1.80;;;22.10;38.40;;;;;;10435365;28;20237;-68
2021/07/14 19:44:23;;;;;;;2.07;1.97;;;22.10;38.60;;;;;;10434054;28;21283;-68
2021/07/14 19:49:26;;;;;;;1.93;1.83;;;22.00;38.80;;;;;;10433166;28;20878;-68
2021/07/14 19:54:31;;;;;;;1.87;1.77;;;22.00;39.00;;;;;;10440192;28;20226;-69
2021/07/14 19:59:34;;;;;;;1.90;1.80;;;21.90;39.00;;;;;;10438815;28;20221;-69
2021/07/14 20:04:38;;;;;;;2.17;2.07;;;21.90;38.90;;;;;;10437411;28;20594;-69
2021/07/14 20:09:42;;;;;;;2.13;1.80;;;21.90;39.00;;;;;;10439965;28;20251;-68
2021/07/14 20:14:47;;;;;;;2.10;1.60;;;21.80;38.90;;;;;;10438700;28;20217;-68
2021/07/14 20:19:50;;;;;;;1.70;1.60;;;21.70;38.60;;;;;;10443361;28;20239;-68
2021/07/14 20:24:55;;;;;;;1.43;1.43;;;21.60;38.40;;;;;;10439782;28;20225;-68
2021/07/14 20:29:58;;;;;;;1.50;1.40;;;21.50;37.80;;;;;;10435011;28;20240;-68
2021/07/14 20:35:02;;;;;;;1.33;1.20;;;21.40;38.20;;;;;;10441843;28;20225;-73
2021/07/14 20:40:08;;;;;;;1.53;1.43;;;21.30;38.10;;;;;;10442917;28;20228;-68
2021/07/14 20:45:14;;;;;;;1.37;1.27;;;21.20;38.10;;;;;;10435450;28;20229;-68
2021/07/14 20:50:21;;;;;;;2.00;1.40;;;21.00;38.10;;;;;;10447826;28;20229;-68
2021/07/14 20:55:26;;;;;;;1.07;1.07;;;20.90;38.30;;;;;;10435349;28;20237;-68
2021/07/14 21:00:31;;;;;;;1.27;1.27;;;20.80;38.50;;;;;;10442071;28;20760;-68
2021/07/14 21:05:34;;;;;;;1.60;1.13;;;20.70;38.60;;;;;;10442950;28;20224;-68
2021/07/14 21:10:39;;;;;;;1.20;1.20;;;20.60;38.60;;;;;;10451210;28;20592;-68
2021/07/14 21:15:42;;;;;;;1.27;1.20;;;20.60;39.00;;;;;;10434809;28;20270;-68
2021/07/14 21:20:45;;;;;;;1.20;1.20;;;20.50;39.00;;;;;;10441665;28;20228;-68
2021/07/14 21:25:50;;;;;;;1.20;1.20;;;20.50;39.30;;;;;;10441462;28;20217;-68
2021/07/14 21:30:53;;;;;;;3.53;1.20;;;20.50;39.50;;;;;;10445759;28;20239;-68
2021/07/14 21:35:56;;;;;;;1.10;1.10;;;20.50;39.60;;;;;;10448982;28;20235;-68
2021/07/14 21:41:01;;;;;;;2.00;1.50;;;20.50;39.60;;;;;;10441926;28;20752;-68
2021/07/14 21:46:04;;;;;;;1.40;1.30;;;20.40;39.90;;;;;;10441413;28;20221;-68
2021/07/14 21:51:08;;;;;;;1.00;1.00;;;20.40;39.90;;;;;;10444723;28;20228;-68
2021/07/14 21:56:12;;;;;;;1.93;1.20;;;20.40;40.10;;;;;;10453045;28;20252;-68
2021/07/14 22:01:15;;;;;;;1.93;1.30;;;20.40;40.40;;;;;;10460125;28;21025;-68
2021/07/14 22:06:19;;;;;;;4.10;1.37;;;20.30;40.20;;;;;;10453240;28;20225;-68
2021/07/14 22:11:24;;;;;;;1.57;1.30;;;20.30;40.40;;;;;;10453389;28;20240;-68
2021/07/14 22:16:27;;;;;;;1.50;1.40;;;20.30;40.90;;;;;;10451692;28;20232;-68
2021/07/14 22:21:30;;;;;;;2.50;1.20;;;20.20;40.60;;;;;;10450398;28;20275;-73
2021/07/14 22:26:38;;;;;;;2.97;2.10;;;20.20;40.80;;;;;;10450430;28;20247;-73
2021/07/14 22:31:43;;;;;;;1.40;1.30;;;20.10;41.20;;;;;;10443783;28;20229;-73
2021/07/14 22:36:53;;;;;;;1.60;1.50;;;20.10;41.00;;;;;;10452311;28;20240;-73
2021/07/14 22:41:59;;;;;;;2.10;1.40;;;19.90;41.20;;;;;;10452064;28;20216;-73
2021/07/14 22:47:04;;;;;;;1.20;1.20;;;19.90;41.20;;;;;;10449650;28;20252;-73
2021/07/14 22:52:07;;;;;;;1.27;1.27;;;19.80;41.00;;;;;;10449884;28;20229;-73
2021/07/14 22:57:12;;;;;;;1.20;1.20;;;19.80;41.00;;;;;;10443640;28;20228;-73
2021/07/14 23:02:15;;;;;;;1.50;1.40;;;19.80;41.40;;;;;;10454134;28;20739;-73
2021/07/14 23:07:19;;;;;;;1.40;1.30;;;19.80;41.30;;;;;;10448983;28;20221;-73
2021/07/14 23:12:23;;;;;;;1.20;1.20;;;19.80;41.30;;;;;;10449478;28;20237;-73
2021/07/14 23:17:27;;;;;;;1.45;1.35;;;19.80;41.60;;;;;;10390700;28;1463986;-73
2021/07/14 23:22:30;;;;;;;1.10;1.10;;;19.80;41.30;;;;;;10445582;28;20229;-73
2021/07/14 23:27:35;;;;;;;2.07;1.50;;;19.80;41.40;;;;;;10445463;28;20228;-73
2021/07/14 23:32:39;;;;;;;1.67;1.10;;;19.80;41.90;;;;;;10450874;28;20225;-73
2021/07/14 23:37:42;;;;;;;1.63;1.40;;;19.70;41.60;;;;;;10449517;28;20223;-73
2021/07/14 23:42:49;;;;;;;1.30;1.20;;;19.70;41.70;;;;;;10443169;28;20236;-74
2021/07/14 23:47:54;;;;;;;1.37;1.23;;;19.70;42.40;;;;;;10447953;28;20240;-73
2021/07/14 23:52:58;;;;;;;1.30;1.20;;;19.60;41.80;;;;;;10442306;28;20234;-73
2021/07/14 23:58:05;;;;;;;1.43;1.20;;;19.60;42.00;;;;;;10447959;28;20228;-72
